地図

経路データ

SID SEASON NUMBER BASIN SUBBASIN NAME ISO_TIME NATURE LAT LON WMO_WIND WMO_PRES WMO_AGENCY TRACK_TYPE DIST2LAND LANDFALL IFLAG USA_AGENCY USA_ATCF_ID USA_LAT USA_LON USA_RECORD USA_STATUS USA_WIND USA_PRES USA_SSHS USA_R34_NE USA_R34_SE USA_R34_SW USA_R34_NW USA_R50_NE USA_R50_SE USA_R50_SW USA_R50_NW USA_R64_NE USA_R64_SE USA_R64_SW USA_R64_NW USA_POCI USA_ROCI USA_RMW USA_EYE TOKYO_LAT TOKYO_LON TOKYO_GRADE TOKYO_WIND TOKYO_PRES TOKYO_R50_DIR TOKYO_R50_LONG TOKYO_R50_SHORT TOKYO_R30_DIR TOKYO_R30_LONG TOKYO_R30_SHORT TOKYO_LAND CMA_LAT CMA_LON CMA_CAT CMA_WIND CMA_PRES HKO_LAT HKO_LON HKO_CAT HKO_WIND HKO_PRES NEWDELHI_LAT NEWDELHI_LON NEWDELHI_GRADE NEWDELHI_WIND NEWDELHI_PRES NEWDELHI_CI NEWDELHI_DP NEWDELHI_POCI REUNION_LAT REUNION_LON REUNION_TYPE REUNION_WIND REUNION_PRES REUNION_TNUM REUNION_CI REUNION_RMW REUNION_R34_NE REUNION_R34_SE REUNION_R34_SW REUNION_R34_NW REUNION_R50_NE REUNION_R50_SE REUNION_R50_SW REUNION_R50_NW REUNION_R64_NE REUNION_R64_SE REUNION_R64_SW REUNION_R64_NW BOM_LAT BOM_LON BOM_TYPE BOM_WIND BOM_PRES BOM_TNUM BOM_CI BOM_RMW BOM_R34_NE BOM_R34_SE BOM_R34_SW BOM_R34_NW BOM_R50_NE BOM_R50_SE BOM_R50_SW BOM_R50_NW BOM_R64_NE BOM_R64_SE BOM_R64_SW BOM_R64_NW BOM_ROCI BOM_POCI BOM_EYE BOM_POS_METHOD BOM_PRES_METHOD NADI_LAT NADI_LON NADI_CAT NADI_WIND NADI_PRES WELLINGTON_LAT WELLINGTON_LON WELLINGTON_WIND WELLINGTON_PRES DS824_LAT DS824_LON DS824_STAGE DS824_WIND DS824_PRES TD9636_LAT TD9636_LON TD9636_STAGE TD9636_WIND TD9636_PRES TD9635_LAT TD9635_LON TD9635_WIND TD9635_PRES TD9635_ROCI NEUMANN_LAT NEUMANN_LON NEUMANN_CLASS NEUMANN_WIND NEUMANN_PRES MLC_LAT MLC_LON MLC_CLASS MLC_WIND MLC_PRES USA_GUST BOM_GUST BOM_GUST_PER REUNION_GUST REUNION_GUST_PER USA_SEAHGT USA_SEARAD_NE USA_SEARAD_SE USA_SEARAD_SW USA_SEARAD_NW STORM_SPEED STORM_DIR
1989314N10152 1989 122 WP MM HUNT 1989-11-10 00:00:00 NR 10.0000 151.600 main 1425 1424 O_________O___ jtwc_wp WP331989 10.0000 151.600 20 -1 10.0000 151.600 1 20 3 270
1989314N10152 1989 122 WP MM HUNT 1989-11-10 03:00:00 NR 10.0000 151.459 main 1424 1423 P_________P___ WP331989 10.0000 151.448 20 -1 9.99999 151.470 1 20 3 270
1989314N10152 1989 122 WP MM HUNT 1989-11-10 06:00:00 NR 9.99999 151.316 main 1423 1419 O_________P___ jtwc_wp WP331989 10.0000 151.300 20 -1 9.99998 151.333 1 20 3 270
1989314N10152 1989 122 WP MM HUNT 1989-11-10 09:00:00 NR 9.99998 151.168 main 1419 1413 P_________P___ WP331989 9.99998 151.158 20 -1 9.99998 151.178 1 20 3 270
1989314N10152 1989 122 WP MM HUNT 1989-11-10 12:00:00 NR 10.0000 151.000 main 1413 1407 O_________O___ jtwc_wp WP331989 10.0000 151.000 20 -1 10.0000 151.000 1 20 4 270
1989314N10152 1989 122 WP MM HUNT 1989-11-10 15:00:00 NR 10.0000 150.804 main 1407 1401 P_________P___ WP331989 9.99999 150.815 20 -1 10.0000 150.792 1 20 4 270
1989314N10152 1989 122 WP MM HUNT 1989-11-10 18:00:00 NR 10.0000 150.583 main 1401 1395 O_________P___ jtwc_wp WP331989 10.0000 150.600 20 -1 10.0000 150.565 1 20 5 270
1989314N10152 1989 122 WP MM HUNT 1989-11-10 21:00:00 NR 10.0000 150.340 main 1393 1388 P_________P___ WP331989 10.0000 150.350 20 -1 10.0000 150.330 1 20 5 270
1989314N10152 1989 122 WP MM HUNT 1989-11-11 00:00:00 NR 10.0000 150.100 main 1388 1383 O_________O___ jtwc_wp WP331989 10.0000 150.100 20 -1 10.0000 150.100 1 20 4 271
1989314N10152 1989 122 WP MM HUNT 1989-11-11 03:00:00 NR 10.0040 149.893 main 1383 1379 P_________P___ WP331989 9.99997 149.893 20 -1 10.0081 149.893 1 20 4 271
1989314N10152 1989 122 WP MM HUNT 1989-11-11 06:00:00 NR 10.0075 149.696 main 1379 1375 O_________P___ jtwc_wp WP331989 10.0000 149.700 20 -1 10.0149 149.693 1 20 4 271
1989314N10152 1989 122 WP MM HUNT 1989-11-11 09:00:00 NR 10.0109 149.498 main 1375 1372 P_________P___ WP331989 10.0075 149.500 20 -1 10.0143 149.496 1 20 4 269
1989314N10152 1989 122 WP MM HUNT 1989-11-11 12:00:00 NR 10.0000 149.300 main 1372 1368 O_________O___ jtwc_wp WP331989 10.0000 149.300 20 -1 10.0000 149.300 1 20 4 263
1989314N10152 1989 122 WP MM HUNT 1989-11-11 15:00:00 NR 9.96287 149.114 main 1368 1354 P_________P___ WP331989 9.95749 149.100 20 -1 9.96825 149.128 1 20 4 256
1989314N10152 1989 122 WP MM HUNT 1989-11-11 18:00:00 NR 9.91110 148.926 main 1354 1352 O_________P___ jtwc_wp WP331989 9.90000 148.900 20 -1 9.92221 148.953 1 20 4 254
1989314N10152 1989 122 WP MM HUNT 1989-11-11 21:00:00 NR 9.85751 148.736 main 1352 1338 P_________P___ WP331989 9.84994 148.723 20 -1 9.86507 148.750 1 20 4 255
1989314N10152 1989 122 WP MM HUNT 1989-11-12 00:00:00 NR 9.80000 148.500 main 1338 1325 O_________O___ jtwc_wp WP331989 9.80000 148.500 20 -1 9.80000 148.500 1 20 6 258
1989314N10152 1989 122 WP MM HUNT 1989-11-12 03:00:00 NR 9.74294 148.165 main 1325 1322 P_________P___ WP331989 9.75750 148.180 20 -1 9.72839 148.151 1 20 7 260
1989314N10152 1989 122 WP MM HUNT 1989-11-12 06:00:00 NR 9.67519 147.779 main 1322 1311 O_________P___ jtwc_wp WP331989 9.70000 147.800 20 -1 9.65038 147.757 1 20 8 259
1989314N10152 1989 122 WP MM HUNT 1989-11-12 09:00:00 NR 9.58984 147.373 main 1311 1299 P_________P___ WP331989 9.60755 147.385 20 -1 9.57213 147.360 1 20 8 257
1989314N10152 1989 122 WP MM HUNT 1989-11-12 12:00:00 NR 9.50000 147.000 main 1299 1288 O_________O___ jtwc_wp WP331989 9.50000 147.000 20 -1 9.50000 147.000 1 20 7 253
1989314N10152 1989 122 WP MM HUNT 1989-11-12 15:00:00 NR 9.38537 146.714 main 1288 1277 P_________P___ WP331989 9.38494 146.720 20 -1 9.38581 146.707 1 20 6 248
1989314N10152 1989 122 WP MM HUNT 1989-11-12 18:00:00 NR 9.29368 146.480 main 1277 1266 O_________P___ jtwc_wp WP331989 9.30000 146.500 20 -1 9.28736 146.460 1 20 5 252
1989314N10152 1989 122 WP MM HUNT 1989-11-12 21:00:00 NR 9.24636 146.271 main 1266 1266 P_________P___ WP331989 9.24749 146.285 20 -1 9.24524 146.257 1 20 4 271
1989314N10152 1989 122 WP MM HUNT 1989-11-13 00:00:00 NR 9.30000 146.100 main 1278 1278 O_________O___ jtwc_wp WP331989 9.30000 146.100 20 -1 9.30000 146.100 1 20 4 309
1989314N10152 1989 122 WP MM HUNT 1989-11-13 03:00:00 NR 9.49839 145.957 main 1301 1301 P_________P___ WP331989 9.49751 145.920 22 -1 9.49927 145.994 1 22 6 335
1989314N10152 1989 122 WP MM HUNT 1989-11-13 06:00:00 NR 9.79744 145.864 main 1335 1335 O_________P___ jtwc_wp WP331989 9.80000 145.800 25 -1 9.79488 145.927 1 25 7 349
1989314N10152 1989 122 WP MM HUNT 1989-11-13 09:00:00 NR 10.1465 145.828 main 1369 1369 P_________P___ WP331989 10.1500 145.785 27 -1 10.1430 145.872 1 27 7 355
1989314N10152 1989 122 WP MM HUNT 1989-11-13 12:00:00 NR 10.5000 145.800 main 1414 1414 O_________O___ jtwc_wp WP331989 10.5000 145.800 30 -1 10.5000 145.800 1 30 6 354
1989314N10152 1989 122 WP MM HUNT 1989-11-13 15:00:00 NR 10.7828 145.778 main 1448 1448 P_________P___ WP331989 10.7500 145.787 30 -1 10.8155 145.768 1 30 6 351
1989314N10152 1989 122 WP MM HUNT 1989-11-13 18:00:00 NR 11.0644 145.701 main 1482 1482 O_________P___ jtwc_wp WP331989 11.0000 145.700 30 -1 11.1287 145.702 1 30 7 338
1989314N10152 1989 122 WP MM HUNT 1989-11-13 21:00:00 NR 11.3849 145.537 main 1517 1517 P_________P___ WP331989 11.3423 145.540 30 -1 11.4276 145.534 1 30 8 322
1989314N10152 1989 122 WP MM HUNT 1989-11-14 00:00:00 NR 11.7000 145.200 main 1553 1553 O_________O___ jtwc_wp WP331989 11.7000 145.200 30 -1 11.7000 145.200 1 30 11 305
1989314N10152 1989 122 WP MM HUNT 1989-11-14 03:00:00 NR 12.0059 144.632 main 1595 1595 P_________P___ WP331989 12.0374 144.640 27 -1 11.9743 144.623 1 28 14 293
1989314N10152 1989 122 WP MM HUNT 1989-11-14 06:00:00 NR 12.2569 143.891 main 1640 1640 O_________P___ jtwc_wp WP331989 12.3000 143.900 25 -1 12.2138 143.881 1 27 16 285
1989314N10152 1989 122 WP MM HUNT 1989-11-14 09:00:00 NR 12.4243 143.060 main 1659 1640 P_________P___ WP331989 12.4526 143.072 25 -1 12.3961 143.048 1 26 17 278
1989314N10152 1989 122 WP MM HUNT 1989-11-14 12:00:00 NR 12.5000 142.200 main 1640 1609 O_________O___ jtwc_wp WP331989 12.5000 142.200 25 -1 12.5000 142.200 1 25 16 272
1989314N10152 1989 122 WP MM HUNT 1989-11-14 15:00:00 NR 12.4899 141.399 main 1609 1571 P_________P___ WP331989 12.4798 141.377 22 -1 12.4999 141.421 1 23 15 267
1989314N10152 1989 122 WP MM HUNT 1989-11-14 18:00:00 NR 12.4125 140.623 main 1567 1532 O_________P___ jtwc_wp WP331989 12.4000 140.600 20 -1 12.4250 140.646 1 22 15 263
1989314N10152 1989 122 WP MM HUNT 1989-11-14 21:00:00 NR 12.3099 139.888 main 1532 1460 P_________P___ WP331989 12.3073 139.878 20 -1 12.3125 139.899 1 21 14 261
1989314N10152 1989 122 WP MM HUNT 1989-11-15 00:00:00 NR 12.2000 139.200 main 1460 1394 O_________O___ jtwc_wp WP331989 12.2000 139.200 20 -1 12.2000 139.200 1 20 13 261
1989314N10152 1989 122 WP MM HUNT 1989-11-15 03:00:00 NR 12.1094 138.543 main 1383 1328 P_________P___ WP331989 12.0849 138.520 20 -1 12.1339 138.567 1 20 12 263
1989314N10152 1989 122 WP MM HUNT 1989-11-15 06:00:00 NR 12.0382 137.941 main 1317 1264 O_________P___ jtwc_wp WP331989 12.0000 137.900 20 -1 12.0765 137.983 1 20 11 265
1989314N10152 1989 122 WP MM HUNT 1989-11-15 09:00:00 NR 12.0078 137.409 main 1264 1211 P_________P___ WP331989 11.9847 137.385 20 -1 12.0309 137.432 1 20 10 268
1989314N10152 1989 122 WP MM HUNT 1989-11-15 12:00:00 NR 12.0000 136.900 main 1211 1158 O_________O___ jtwc_wp WP331989 12.0000 136.900 20 -1 12.0000 136.900 1 20 10 269
1989314N10152 1989 122 WP MM HUNT 1989-11-15 15:00:00 NR 11.9926 136.355 main 1158 1106 P_________P___ WP331989 12.0000 136.350 20 -1 11.9852 136.361 1 21 10 273
1989314N10152 1989 122 WP MM HUNT 1989-11-15 18:00:00 TS 12.0486 135.893 1004 tokyo main 1106 1052 OO________P___ jtwc_wp WP331989 12.0000 135.800 20 -1 12.5000 136.500 2 1004 0 0 0 11.9844 135.835 1 22 10 273
1989314N10152 1989 122 WP MM HUNT 1989-11-15 21:00:00 TS 12.0367 135.384 main 1052 998 PP________P___ WP331989 11.9999 135.293 22 -1 12.2006 135.699 2 1004 0 0 11.9915 135.317 1 23 10 267
1989314N10152 1989 122 WP MM HUNT 1989-11-16 00:00:00 TS 12.0000 134.867 1004 tokyo main 998 944 OOO_______O___ jtwc_wp WP331989 12.0000 134.800 25 -1 12.0000 135.000 2 1004 0 0 0 12.0000 135.000 1 23 1000 12.0000 134.800 1 25 10 267
1989314N10152 1989 122 WP MM HUNT 1989-11-16 03:00:00 TS 11.9903 134.366 main 944 890 PPP_______P___ WP331989 11.9999 134.308 25 -1 11.9622 134.463 2 1003 0 0 12.0001 134.505 1 23 1000 12.0040 134.259 1 25 10 270
1989314N10152 1989 122 WP MM HUNT 1989-11-16 06:00:00 TS 12.0020 133.872 1002 tokyo main 890 836 OOO_______P___ jtwc_wp WP331989 12.0000 133.800 25 -1 12.0000 134.000 2 1002 0 0 0 12.0000 134.000 1 23 1000 12.0074 133.720 1 25 10 271
1989314N10152 1989 122 WP MM HUNT 1989-11-16 09:00:00 TS 12.0018 133.358 main 836 782 PPP_______P___ WP331989 12.0000 133.250 25 -1 11.9999 133.500 2 1002 0 0 12.0000 133.485 1 26 997 12.0071 133.196 1 25 10 270
1989314N10152 1989 122 WP MM HUNT 1989-11-16 12:00:00 TS 12.0000 132.850 1002 tokyo main 782 728 OOO_______O___ jtwc_wp WP331989 12.0000 132.700 25 -1 12.0000 133.000 2 1002 0 0 0 12.0000 133.000 1 29 995 12.0000 132.700 1 25 10 269
1989314N10152 1989 122 WP MM HUNT 1989-11-16 15:00:00 TS 11.9917 132.361 main 728 674 PPP_______P___ WP331989 12.0075 132.170 25 -1 11.9850 132.470 2 1000 0 0 11.9924 132.585 1 29 995 11.9820 132.218 1 25 9 269
1989314N10152 1989 122 WP MM HUNT 1989-11-16 18:00:00 TS 11.9782 131.922 35 998 tokyo main 674 642 OOOO______P___ jtwc_wp WP331989 12.0000 131.700 25 -1 12.0000 132.000 3 35 998 0 9 100 100 0 12.0000 132.200 1 29 995 11.8000 132.000 TD 25 1000 11.9573 131.768 1 25 8 270
1989314N10152 1989 122 WP MM HUNT 1989-11-16 21:00:00 TS 11.9861 131.551 main 642 599 PPPP______P___ WP331989 11.9574 131.305 25 -1 12.1148 131.693 3 37 997 0 9 100 100 12.0574 131.800 1 29 995 11.7576 131.645 TD 27 1000 11.9290 131.358 1 25 7 270
1989314N10152 1989 122 WP MM HUNT 1989-11-17 00:00:00 TS 11.9737 131.216 40 996 tokyo main 599 565 OOOO______O___ jtwc_wp WP331989 11.9000 131.000 25 -1 12.2000 131.400 3 40 996 0 9 100 100 0 12.1000 131.400 1 29 995 11.7000 131.300 TD 30 1000 11.9000 131.000 1 25 7 263
1989314N10152 1989 122 WP MM HUNT 1989-11-17 03:00:00 TS 11.8999 130.880 main 565 531 PPPP______P___ WP331989 11.8424 130.793 27 -1 12.1301 130.942 3 42 994 0 9 100 100 12.0575 130.985 1 29 995 11.6275 130.977 TD 32 997 11.8421 130.704 1 26 6 258
1989314N10152 1989 122 WP MM HUNT 1989-11-17 06:00:00 TS 11.8379 130.571 45 992 tokyo main 531 498 OOOO______P___ jtwc_wp WP331989 11.8000 130.600 30 -1 12.0000 130.500 3 45 992 0 9 100 100 0 12.0000 130.600 1 29 995 11.6000 130.700 TS 35 995 11.7895 130.455 1 27 6 260
1989314N10152 1989 122 WP MM HUNT 1989-11-17 09:00:00 TS 11.7974 130.293 main 498 477 PPPP______P___ WP331989 11.7700 130.315 30 -1 11.8399 130.175 3 45 991 0 9 112 112 11.9625 130.270 1 29 995 11.6475 130.477 TS 37 995 11.7672 130.229 1 28 5 270
1989314N10152 1989 122 WP MM HUNT 1989-11-17 12:00:00 TS 11.8400 130.060 45 990 tokyo main 477 460 OOOO______O___ jtwc_wp WP331989 11.8000 130.000 30 -1 11.8000 130.000 3 45 990 0 9 125 125 0 12.0000 130.000 1 29 995 11.8000 130.300 TS 40 995 11.8000 130.000 1 30 4 301
1989314N10152 1989 122 WP MM HUNT 1989-11-17 15:00:00 TS 12.0255 129.902 main 460 445 PPPP______P___ WP331989 11.9200 129.693 32 -1 12.0398 130.095 3 47 987 0 9 125 125 12.1549 129.800 1 33 992 12.1073 130.195 TS 42 992 11.9053 129.728 1 32 6 322
1989314N10152 1989 122 WP MM HUNT 1989-11-17 18:00:00 TS 12.2735 129.710 50 985 tokyo main 449 425 OOOO______P___ jtwc_wp WP331989 12.1000 129.400 35 0 12.4000 130.100 4 50 985 0 9 125 125 0 12.4000 129.600 2 38 990 12.4000 130.000 TS 45 990 12.0675 129.450 1 35 7 312
1989314N10152 1989 122 WP MM HUNT 1989-11-17 21:00:00 TS 12.4992 129.366 main 425 384 PPPP______P___ WP331989 12.2850 129.142 37 0 12.7528 129.633 4 52 982 0 9 137 137 12.7299 129.345 2 43 987 12.4577 129.537 TS 47 987 12.2709 129.172 1 37 8 300
1989314N10152 1989 122 WP MM HUNT 1989-11-18 00:00:00 TS 12.7000 128.960 55 980 tokyo main 384 343 OOOO______O___ jtwc_wp WP331989 12.5000 128.900 40 0 13.0000 129.000 4 55 980 9 60 60 9 150 150 0 13.0000 129.000 3 48 985 12.5000 129.000 STS 50 985 12.5000 128.900 2 40 9 293
1989314N10152 1989 122 WP MM HUNT 1989-11-18 03:00:00 TS 12.8389 128.555 main 343 306 PPPP______P___ WP331989 12.7425 128.650 45 0 12.9876 128.447 4 57 977 9 60 60 9 162 162 13.0228 128.477 3 53 982 12.7124 128.570 STS 52 982 12.7295 128.632 2 45 8 290
1989314N10152 1989 122 WP MM HUNT 1989-11-18 06:00:00 TS 12.9759 128.195 60 975 tokyo main 306 283 OOOO______P___ jtwc_wp WP331989 13.0000 128.400 50 0 12.9000 128.000 4 60 975 9 60 60 9 175 175 0 13.0000 128.000 3 58 980 13.0000 128.200 STS 55 980 12.9795 128.373 2 50 7 298
1989314N10152 1989 122 WP MM HUNT 1989-11-18 09:00:00 TS 13.1644 127.932 main 283 273 PPPP______P___ WP331989 13.2500 128.142 55 0 12.9049 127.740 4 60 975 9 60 60 9 175 175 13.1123 127.797 3 58 980 13.3150 127.855 STS 55 980 13.2397 128.127 2 55 6 312
1989314N10152 1989 122 WP MM HUNT 1989-11-18 12:00:00 TS 13.3800 127.740 60 975 tokyo main 273 270 OOOO______O___ jtwc_wp WP331989 13.5000 127.900 60 0 13.0000 127.600 4 60 975 9 60 60 9 175 175 0 13.3000 127.700 3 58 980 13.6000 127.600 STS 55 980 13.5000 127.900 2 60 6 322
1989314N10152 1989 122 WP MM HUNT 1989-11-18 15:00:00 TS 13.6162 127.572 main 276 272 PPPP______P___ WP331989 13.7650 127.685 62 0 13.2200 127.485 4 62 972 9 65 65 9 187 187 13.5500 127.543 3 58 977 13.7799 127.462 STS 57 980 13.7663 127.687 2 62 5 328
1989314N10152 1989 122 WP MM HUNT 1989-11-18 18:00:00 TS 13.8400 127.440 65 970 tokyo main 272 272 OOOO______O___ jtwc_wp WP331989 14.0000 127.500 65 1 13.5000 127.400 5 65 970 9 70 70 9 200 200 0 13.8000 127.400 3 58 975 13.9000 127.400 STS 60 980 14.0000 127.500 3 65 5 328
1989314N10152 1989 122 WP MM HUNT 1989-11-18 21:00:00 TS 14.0013 127.322 main 280 280 PPPP______P___ WP331989 14.1650 127.335 70 1 13.7425 127.300 5 67 967 9 70 70 9 250 200 13.9575 127.292 3 63 972 13.9775 127.350 STS 62 977 14.1639 127.332 3 70 4 327
1989314N10152 1989 122 WP MM HUNT 1989-11-19 00:00:00 TS 14.1600 127.220 70 965 tokyo main 287 287 OOOO______O___ jtwc_wp WP331989 14.3000 127.200 75 1 14.0000 127.200 5 70 965 9 70 70 8 300 200 0 14.1000 127.200 4 68 970 14.1000 127.300 T 65 975 14.3000 127.200 4 75 4 332
1989314N10152 1989 122 WP MM HUNT 1989-11-19 03:00:00 TS 14.3776 127.117 main 295 291 PPPP______P___ WP331989 14.4425 127.077 82 1 14.3000 127.093 5 72 962 9 75 75 8 325 225 14.2850 127.085 4 72 965 14.3850 127.208 T 70 970 14.4754 127.121 4 78 5 338
1989314N10152 1989 122 WP MM HUNT 1989-11-19 06:00:00 TS 14.6120 127.036 75 960 tokyo main 291 291 OOOO______P___ jtwc_wp WP331989 14.6000 127.000 90 2 14.6000 127.000 5 75 960 9 80 80 8 350 250 0 14.5000 127.000 4 77 960 14.7000 127.100 T 75 965 14.6601 127.079 4 82 5 345
1989314N10152 1989 122 WP MM HUNT 1989-11-19 09:00:00 TS 14.8385 126.997 main 297 297 PPPP______P___ WP331989 14.7925 126.992 90 2 14.8800 126.950 5 75 960 9 80 80 8 350 250 14.7500 126.992 4 77 960 14.9300 127.000 T 72 967 14.8398 127.048 4 86 4 351
1989314N10152 1989 122 WP MM HUNT 1989-11-19 12:00:00 TS 15.0400 126.960 75 960 tokyo main 305 300 OOOO______O___ jtwc_wp WP331989 15.0000 127.000 90 2 15.1000 126.900 5 75 960 9 80 80 8 350 250 0 15.0000 127.000 4 77 960 15.1000 126.900 T 70 970 15.0000 127.000 4 90 4 345
1989314N10152 1989 122 WP MM HUNT 1989-11-19 15:00:00 TS 15.2108 126.898 main 306 302 PPPP______P___ WP331989 15.2300 126.980 90 2 15.2225 126.807 5 75 960 9 80 80 8 350 250 15.2375 126.988 4 77 960 15.2225 126.807 T 67 972 15.1418 126.909 4 90 3 333
1989314N10152 1989 122 WP MM HUNT 1989-11-19 18:00:00 TS 15.3320 126.799 75 960 tokyo main 302 299 OOOO______P___ jtwc_wp WP331989 15.4000 126.900 90 2 15.3000 126.700 5 75 960 9 80 80 8 350 250 0 15.4000 126.900 4 77 960 15.3000 126.700 T 65 975 15.2599 126.795 4 90 3 306
1989314N10152 1989 122 WP MM HUNT 1989-11-19 21:00:00 TS 15.3946 126.642 main 290 281 PPPP______P___ WP331989 15.4300 126.722 90 2 15.4075 126.607 5 75 960 9 80 80 8 350 250 15.4226 126.665 4 77 960 15.3650 126.558 T 65 975 15.3481 126.659 4 90 3 285
1989314N10152 1989 122 WP MM HUNT 1989-11-20 00:00:00 TS 15.4200 126.460 75 960 tokyo main 281 264 OOOO______O___ jtwc_wp WP331989 15.4000 126.500 90 2 15.5000 126.500 5 75 960 9 80 80 8 350 250 0 15.4000 126.400 4 77 960 15.4000 126.400 T 65 975 15.4000 126.500 4 90 3 279
1989314N10152 1989 122 WP MM HUNT 1989-11-20 03:00:00 TS 15.4482 126.305 main 264 256 PPPP______P___ WP331989 15.4075 126.300 90 2 15.5575 126.365 5 75 960 9 80 80 8 350 250 15.4499 126.250 4 77 960 15.4075 126.257 T 67 972 15.4189 126.350 4 90 3 277
1989314N10152 1989 122 WP MM HUNT 1989-11-20 06:00:00 TS 15.4604 126.135 75 960 tokyo main 256 240 OOOO______P___ jtwc_wp WP331989 15.4000 126.100 90 2 15.6000 126.200 5 75 960 9 80 80 8 350 250 0 15.5000 126.100 4 77 960 15.4000 126.100 T 70 970 15.4022 126.175 4 90 4 273
1989314N10152 1989 122 WP MM HUNT 1989-11-20 09:00:00 TS 15.4639 125.936 main 240 217 PPPP______P___ WP331989 15.3574 125.915 90 2 15.6800 126.023 5 75 960 9 80 80 8 350 250 15.5150 125.858 4 77 960 15.4075 125.923 T 72 967 15.3594 125.963 4 90 4 267
1989314N10152 1989 122 WP MM HUNT 1989-11-20 12:00:00 TS 15.4400 125.700 75 960 tokyo main 217 203 OOOO______O___ jtwc_wp WP331989 15.3000 125.700 90 2 15.7000 125.800 5 75 960 9 80 80 8 350 250 0 15.5000 125.600 4 77 960 15.4000 125.700 T 75 965 15.3000 125.700 4 90 5 260
1989314N10152 1989 122 WP MM HUNT 1989-11-20 15:00:00 TS 15.3772 125.451 main 203 169 PPPP______P___ WP331989 15.2574 125.438 90 2 15.5798 125.552 5 75 960 9 80 80 8 350 250 15.4647 125.445 4 77 960 15.3649 125.438 T 72 967 15.2191 125.383 4 90 6 254
1989314N10152 1989 122 WP MM HUNT 1989-11-20 18:00:00 TS 15.2855 125.123 75 960 tokyo main 169 141 OOOO______P___ jtwc_wp WP331989 15.2000 125.100 90 2 15.4000 125.200 5 75 960 9 80 80 8 350 250 0 15.4000 125.200 4 77 960 15.3000 125.100 T 70 970 15.1275 125.017 4 90 8 255
1989314N10152 1989 122 WP MM HUNT 1989-11-20 21:00:00 TS 15.1706 124.661 main 141 123 PPPP______P___ WP331989 15.0850 124.672 90 2 15.2277 124.665 5 75 960 9 80 80 8 350 250 15.3003 124.680 4 77 960 15.1925 124.672 T 75 965 15.0472 124.617 4 90 10 258
1989314N10152 1989 122 WP MM HUNT 1989-11-21 00:00:00 TS 15.0800 124.160 75 960 tokyo main 123 123 OOOO______O___ jtwc_wp WP331989 15.0000 124.200 90 2 15.1000 124.100 5 75 960 9 80 80 8 350 250 0 15.2000 124.100 4 77 960 15.1000 124.200 T 80 960 15.0000 124.200 4 90 9 263
1989314N10152 1989 122 WP MM HUNT 1989-11-21 03:00:00 TS 15.0637 123.718 main 130 109 PPPP______P___ WP331989 15.0275 123.743 90 2 15.0773 123.670 5 75 960 9 80 80 8 350 250 15.1348 123.670 4 77 960 15.0850 123.728 T 77 962 14.9938 123.777 4 90 8 270
1989314N10152 1989 122 WP MM HUNT 1989-11-21 06:00:00 TS 15.0850 123.309 75 960 tokyo main 109 101 OOOO______P___ jtwc_wp WP331989 15.1000 123.300 90 2 15.1000 123.300 5 75 960 9 80 80 8 350 250 0 15.1000 123.300 4 77 960 15.1000 123.300 T 75 965 15.0251 123.342 4 90 8 273
1989314N10152 1989 122 WP MM HUNT 1989-11-21 09:00:00 TS 15.0966 122.939 main 100 100 PPPP______P___ WP331989 15.1349 122.892 90 2 15.0849 122.950 5 75 960 9 70 70 8 325 275 15.0849 122.943 4 77 960 15.0848 123.000 T 70 970 15.0938 122.911 4 90 7 274
1989314N10152 1989 122 WP MM HUNT 1989-11-21 12:00:00 TS 15.1400 122.580 75 960 tokyo main 100 77 OOOO______O___ jtwc_wp WP331989 15.2000 122.500 90 2 15.1000 122.600 5 75 960 9 60 60 9 300 300 0 15.1000 122.600 4 77 960 15.1000 122.700 T 65 975 15.2000 122.500 4 90 7 280
1989314N10152 1989 122 WP MM HUNT 1989-11-21 15:00:00 TS 15.2217 122.188 main 77 34 PPPP______P___ WP331989 15.3275 122.085 90 2 15.1701 122.185 5 70 965 9 50 50 9 300 300 15.1125 122.242 4 72 965 15.1474 122.295 T 62 980 15.3509 122.133 4 86 8 287
1989314N10152 1989 122 WP MM HUNT 1989-11-21 18:00:00 TS 15.3669 121.797 65 970 tokyo main 34 0 OOOO______P___ jtwc_wp WP331989 15.5000 121.700 90 2 15.3000 121.800 5 65 970 9 40 40 9 300 300 0 15.2000 121.900 4 68 970 15.3000 121.800 STS 60 985 15.5345 121.785 4 82 8 297
1989314N10152 1989 122 WP MM HUNT 1989-11-21 21:00:00 TS 15.5814 121.461 main 0 0 PPPP______P___ WP331989 15.7073 121.400 82 1 15.4773 121.550 5 57 977 9 9 300 250 15.4198 121.615 4 68 970 15.6054 121.223 STS 52 990 15.7259 121.445 4 78 8 305
1989314N10152 1989 122 WP MM HUNT 1989-11-22 00:00:00 TS 15.8222 121.133 50 985 tokyo main 0 0 OOOO______O___ jtwc_wp WP331989 15.9000 121.100 75 1 15.7000 121.300 4 50 985 0 8 300 200 0 15.7000 121.300 4 68 970 16.0000 120.600 TS 45 995 15.9000 121.100 4 75 8 303
1989314N10152 1989 122 WP MM HUNT 1989-11-22 03:00:00 TS 16.0290 120.743 main 0 0 PPP_______P___ WP331989 16.0150 120.707 65 1 15.9650 120.930 4 47 987 0 8 225 175 15.9652 120.843 4 63 975 TS 16.0298 120.708 4 66 8 295
1989314N10152 1989 122 WP MM HUNT 1989-11-22 06:00:00 TS 16.1594 120.378 45 990 tokyo main 0 0 OOO_______P___ jtwc_wp WP331989 16.1000 120.300 55 0 16.2000 120.500 3 45 990 0 9 150 150 0 16.2000 120.400 3 58 980 16.1377 120.312 4 57 8 290
1989314N10152 1989 122 WP MM HUNT 1989-11-22 09:00:00 TS 16.2841 120.006 main 10 0 PPP_______P___ WP331989 16.2075 119.920 47 0 16.3301 120.027 3 42 992 0 9 150 150 16.3722 120.142 3 48 985 16.2267 119.936 4 48 7 288
1989314N10152 1989 122 WP MM HUNT 1989-11-22 12:00:00 TS 16.3750 119.675 40 994 tokyo main 15 15 OOO_______O___ jtwc_wp WP331989 16.3000 119.600 40 0 16.4000 119.600 3 40 994 0 9 150 150 0 16.5000 119.900 2 38 990 16.3000 119.600 2 40 6 285
1989314N10152 1989 122 WP MM HUNT 1989-11-22 15:00:00 TS 16.4390 119.418 main 44 44 PPP_______P___ WP331989 16.3574 119.385 37 0 16.4268 119.402 3 37 996 0 9 137 137 16.5999 119.545 2 38 992 16.3721 119.340 2 37 5 283
1989314N10152 1989 122 WP MM HUNT 1989-11-22 18:00:00 TS 16.4945 119.132 35 998 tokyo main 77 77 OOO_______P___ jtwc_wp WP331989 16.4000 119.200 35 0 16.5000 119.100 3 35 998 0 9 125 125 0 16.7000 119.100 2 38 994 16.4294 119.120 2 35 7 284
1989314N10152 1989 122 WP MM HUNT 1989-11-22 21:00:00 TS 16.6128 118.703 main 122 122 PPP_______P___ WP331989 16.4575 118.958 32 -1 16.7962 118.301 3 999 0 9 16.8379 118.573 2 33 997 16.4721 118.915 2 32 8 284
1989314N10152 1989 122 WP MM HUNT 1989-11-23 00:00:00 TS 16.6923 118.277 1000 tokyo main 166 166 OOO_______O___ jtwc_wp WP331989 16.5000 118.700 30 -1 17.0000 117.500 2 1000 0 0 0 17.0000 118.000 1 29 1000 16.5000 118.700 1 30 7 273
1989314N10152 1989 122 WP MM HUNT 1989-11-23 03:00:00 TS 16.6492 118.016 main 193 193 PP________P___ WP331989 16.5074 118.457 27 -1 16.8245 117.130 2 1002 0 0 1 16.6157 118.461 1 27 5 255
1989314N10152 1989 122 WP MM HUNT 1989-11-23 06:00:00 TS 16.5673 117.801 1004 tokyo main 213 213 OO________P___ jtwc_wp WP331989 16.5000 118.200 25 -1 16.5000 117.000 2 1004 0 0 0 16.7020 118.204 1 25 4 247
1989314N10152 1989 122 WP MM HUNT 1989-11-23 09:00:00 TS 16.4965 117.632 main 231 228 PP________P___ WP331989 16.5673 117.938 22 -1 16.2348 117.038 2 1006 0 0 16.6874 117.921 1 22 5 239
1989314N10152 1989 122 WP MM HUNT 1989-11-23 12:00:00 TS 16.3333 117.400 1008 tokyo main 248 248 OO________O___ jtwc_wp WP331989 16.5000 117.600 20 -1 16.0000 117.000 2 1008 0 0 0 16.5000 117.600 1 20 8 235
1989314N10152 1989 122 WP MM HUNT 1989-11-23 15:00:00 TS 16.0419 116.953 main 288 288 PP________P___ WP331989 16.1702 117.100 20 -1 15.8655 116.522 2 1008 0 0 16.0900 117.237 1 18 12 230
1989314N10152 1989 122 WP MM HUNT 1989-11-23 18:00:00 TS 15.5986 116.480 1008 tokyo main 345 345 OO________P___ jtwc_wp WP331989 15.6000 116.600 20 -1 15.7000 116.000 2 1008 0 0 0 15.4959 116.841 1 17 13 217
1989314N10152 1989 122 WP MM HUNT 1989-11-23 21:00:00 TS 15.0070 116.143 main 401 401 PP________P___ WP331989 14.8474 116.250 17 -1 15.3947 115.755 2 1009 0 0 14.7788 116.425 1 16 14 204
1989314N10152 1989 122 WP MM HUNT 1989-11-24 00:00:00 TS 14.3333 115.900 1010 tokyo main 447 OO________O___ jtwc_wp WP331989 14.0000 116.000 15 -1 15.0000 115.700 2 1010 0 0 0 14.0000 116.000 1 15 14 199

デジタル台風データ・検索

IBTrACS Databaseについて

本データベースは、米国NOAAが公開する1842年以降の世界の熱帯低気圧のベストトラックデータアーカイブInternational Best Track Archive for Climate Stewardship (IBTrACS)を、ウェブで閲覧しやすい形式に変換したものです。

最終更新日:2021-10-08